sensor_id;sensor_type;location;lat;lon;timestamp;pressure;altitude;pressure_sealevel;temperature;humidity
13954;BME280;7049;49.444;8.522;2023-03-19T00:05:01;77692.53;;;-3.47;60.05
13954;BME280;7049;49.444;8.522;2023-03-19T00:10:06;77690.44;;;-3.47;60.09
13954;BME280;7049;49.444;8.522;2023-03-19T00:15:08;77698.81;;;-3.47;61.64
13954;BME280;7049;49.444;8.522;2023-03-19T00:20:13;77694.63;;;-3.47;62.58
13954;BME280;7049;49.444;8.522;2023-03-19T00:25:16;77707.16;;;-3.47;62.57
13954;BME280;7049;49.444;8.522;2023-03-19T00:30:18;77713.44;;;-3.47;63.43
13954;BME280;7049;49.444;8.522;2023-03-19T00:35:19;77705.09;;;-3.47;62.66
13954;BME280;7049;49.444;8.522;2023-03-19T00:40:22;77707.16;;;-3.47;62.28
13954;BME280;7049;49.444;8.522;2023-03-19T00:45:24;77709.25;;;-3.47;62.45
13954;BME280;7049;49.444;8.522;2023-03-19T00:50:26;77694.63;;;-3.47;63.15
13954;BME280;7049;49.444;8.522;2023-03-19T00:55:29;77688.34;;;-3.47;63.73
13954;BME280;7049;49.444;8.522;2023-03-19T01:00:30;77698.81;;;-3.47;65.41
13954;BME280;7049;49.444;8.522;2023-03-19T01:05:33;77705.09;;;-3.47;67.32
13954;BME280;7049;49.444;8.522;2023-03-19T01:10:36;77711.34;;;-3.47;67.64
13954;BME280;7049;49.444;8.522;2023-03-19T01:15:39;77715.53;;;-3.47;68.34
13954;BME280;7049;49.444;8.522;2023-03-19T01:20:41;77719.72;;;-3.47;68.62
13954;BME280;7049;49.444;8.522;2023-03-19T01:25:43;77728.09;;;-3.47;69.47
13954;BME280;7049;49.444;8.522;2023-03-19T01:30:45;77736.47;;;-3.47;71.62
13954;BME280;7049;49.444;8.522;2023-03-19T01:35:47;77736.47;;;-3.47;71.66
13954;BME280;7049;49.444;8.522;2023-03-19T01:40:50;77740.66;;;-3.47;71.12
13954;BME280;7049;49.444;8.522;2023-03-19T01:45:54;77734.38;;;-3.47;71.31
13954;BME280;7049;49.444;8.522;2023-03-19T01:51:00;77740.66;;;-3.47;72.10
13954;BME280;7049;49.444;8.522;2023-03-19T01:56:08;77755.28;;;-3.47;73.68
13954;BME280;7049;49.444;8.522;2023-03-19T02:01:12;77765.75;;;-3.47;74.18
13954;BME280;7049;49.444;8.522;2023-03-19T02:06:15;77776.22;;;-3.47;74.41
13954;BME280;7049;49.444;8.522;2023-03-19T02:11:19;77774.13;;;-3.47;70.99
13954;BME280;7049;49.444;8.522;2023-03-19T02:16:21;77759.47;;;-3.47;69.65
13954;BME280;7049;49.444;8.522;2023-03-19T02:21:22;77763.66;;;-3.47;69.68
13954;BME280;7049;49.444;8.522;2023-03-19T02:26:27;77763.66;;;-3.47;69.79
13954;BME280;7049;49.444;8.522;2023-03-19T02:31:30;77761.56;;;-3.47;69.63
13954;BME280;7049;49.444;8.522;2023-03-19T02:36:33;77765.75;;;-3.47;69.80
13954;BME280;7049;49.444;8.522;2023-03-19T02:41:38;77767.84;;;-3.47;70.12
13954;BME280;7049;49.444;8.522;2023-03-19T02:46:43;77755.28;;;-3.47;70.16
13954;BME280;7049;49.444;8.522;2023-03-19T02:51:44;77765.75;;;-3.47;70.49
13954;BME280;7049;49.444;8.522;2023-03-19T02:56:47;77778.31;;;-3.47;71.13
13954;BME280;7049;49.444;8.522;2023-03-19T03:01:51;77772.03;;;-3.47;71.23
13954;BME280;7049;49.444;8.522;2023-03-19T03:06:52;77763.66;;;-3.47;71.03
13954;BME280;7049;49.444;8.522;2023-03-19T03:11:55;77769.94;;;-3.47;70.94
13954;BME280;7049;49.444;8.522;2023-03-19T03:16:57;77763.66;;;-3.47;70.91
13954;BME280;7049;49.444;8.522;2023-03-19T03:21:59;77767.84;;;-3.47;71.55
13954;BME280;7049;49.444;8.522;2023-03-19T03:27:02;77767.84;;;-3.47;72.07
13954;BME280;7049;49.444;8.522;2023-03-19T03:32:04;77780.41;;;-3.47;72.09
13954;BME280;7049;49.444;8.522;2023-03-19T03:37:06;77767.84;;;-3.47;71.80
13954;BME280;7049;49.444;8.522;2023-03-19T03:42:09;77784.59;;;-3.47;72.06
13954;BME280;7049;49.444;8.522;2023-03-19T03:47:11;77774.13;;;-3.47;72.23
13954;BME280;7049;49.444;8.522;2023-03-19T03:52:13;77786.69;;;-3.47;72.31
13954;BME280;7049;49.444;8.522;2023-03-19T03:57:16;77784.59;;;-3.47;72.41
13954;BME280;7049;49.444;8.522;2023-03-19T04:02:17;77786.69;;;-3.47;72.60
13954;BME280;7049;49.444;8.522;2023-03-19T04:07:19;77797.16;;;-3.47;73.20
13954;BME280;7049;49.444;8.522;2023-03-19T04:12:22;77801.34;;;-3.47;73.41
13954;BME280;7049;49.444;8.522;2023-03-19T04:17:23;77797.16;;;-3.47;73.12
13954;BME280;7049;49.444;8.522;2023-03-19T04:22:25;77807.59;;;-3.47;73.46
13954;BME280;7049;49.444;8.522;2023-03-19T04:27:28;77811.78;;;-3.47;73.63
13954;BME280;7049;49.444;8.522;2023-03-19T04:32:29;77820.16;;;-3.47;73.79
13954;BME280;7049;49.444;8.522;2023-03-19T04:37:31;77822.25;;;-3.47;73.75
13954;BME280;7049;49.444;8.522;2023-03-19T04:42:33;77826.44;;;-3.47;73.80
13954;BME280;7049;49.444;8.522;2023-03-19T04:47:35;77830.63;;;-3.47;74.09
13954;BME280;7049;49.444;8.522;2023-03-19T04:52:36;77832.72;;;-3.47;73.84
13954;BME280;7049;49.444;8.522;2023-03-19T04:57:39;77839.00;;;-3.47;74.04
13954;BME280;7049;49.444;8.522;2023-03-19T05:02:41;77834.81;;;-3.47;75.05
13954;BME280;7049;49.444;8.522;2023-03-19T05:07:43;77839.00;;;-3.47;75.36
13954;BME280;7049;49.444;8.522;2023-03-19T05:12:45;77843.19;;;-3.47;75.70
13954;BME280;7049;49.444;8.522;2023-03-19T05:17:47;77845.28;;;-3.47;75.89
13954;BME280;7049;49.444;8.522;2023-03-19T05:22:50;77855.75;;;-3.47;76.34
13954;BME280;7049;49.444;8.522;2023-03-19T05:27:53;77853.66;;;-3.47;76.49
13954;BME280;7049;49.444;8.522;2023-03-19T05:32:55;77851.56;;;-3.47;76.66
13954;BME280;7049;49.444;8.522;2023-03-19T05:37:57;77847.38;;;-3.47;76.84
13954;BME280;7049;49.444;8.522;2023-03-19T05:43:00;77855.75;;;-3.47;77.02
13954;BME280;7049;49.444;8.522;2023-03-19T05:48:01;77868.28;;;-3.47;77.08
13954;BME280;7049;49.444;8.522;2023-03-19T05:53:03;77876.66;;;-3.47;77.32
13954;BME280;7049;49.444;8.522;2023-03-19T05:58:06;77882.94;;;-3.47;77.43
13954;BME280;7049;49.444;8.522;2023-03-19T06:03:07;77878.75;;;-3.47;77.26
13954;BME280;7049;49.444;8.522;2023-03-19T06:08:09;77887.13;;;-3.47;78.22
13954;BME280;7049;49.444;8.522;2023-03-19T06:13:12;77891.31;;;-3.47;78.76
13954;BME280;7049;49.444;8.522;2023-03-19T06:18:14;77889.22;;;-3.47;78.96
13954;BME280;7049;49.444;8.522;2023-03-19T06:23:15;77893.41;;;-3.47;78.77
13954;BME280;7049;49.444;8.522;2023-03-19T06:28:18;77880.84;;;-3.47;78.78
13954;BME280;7049;49.444;8.522;2023-03-19T06:33:19;77889.22;;;-3.47;78.72
13954;BME280;7049;49.444;8.522;2023-03-19T06:38:21;77889.22;;;-3.47;78.60
13954;BME280;7049;49.444;8.522;2023-03-19T06:43:24;77880.84;;;-3.47;78.25
13954;BME280;7049;49.444;8.522;2023-03-19T06:48:25;77847.38;;;-3.47;77.26
13954;BME280;7049;49.444;8.522;2023-03-19T06:53:27;77830.63;;;-3.47;75.54
13954;BME280;7049;49.444;8.522;2023-03-19T06:58:29;77843.19;;;-3.47;75.29
13954;BME280;7049;49.444;8.522;2023-03-19T07:03:31;77834.81;;;-3.47;75.12
13954;BME280;7049;49.444;8.522;2023-03-19T07:08:32;77832.72;;;-3.47;74.42
13954;BME280;7049;49.444;8.522;2023-03-19T07:13:35;77826.44;;;-3.47;73.27
13954;BME280;7049;49.444;8.522;2023-03-19T07:18:37;77811.78;;;-3.47;72.30
13954;BME280;7049;49.444;8.522;2023-03-19T07:23:38;77811.78;;;-3.47;72.30
13954;BME280;7049;49.444;8.522;2023-03-19T07:28:42;77799.25;;;-3.47;71.37
13954;BME280;7049;49.444;8.522;2023-03-19T07:33:43;77805.50;;;-3.47;70.62
13954;BME280;7049;49.444;8.522;2023-03-19T07:38:45;77799.25;;;-3.47;69.50
13954;BME280;7049;49.444;8.522;2023-03-19T07:43:48;77784.59;;;-3.47;68.15
13954;BME280;7049;49.444;8.522;2023-03-19T07:48:49;77784.59;;;-3.47;68.20
13954;BME280;7049;49.444;8.522;2023-03-19T07:53:51;77765.75;;;-3.47;68.31
13954;BME280;7049;49.444;8.522;2023-03-19T07:58:54;77755.28;;;-3.47;67.61
13954;BME280;7049;49.444;8.522;2023-03-19T08:03:56;77734.38;;;-3.47;67.09
13954;BME280;7049;49.444;8.522;2023-03-19T08:08:57;77721.81;;;-3.47;67.11
13954;BME280;7049;49.444;8.522;2023-03-19T08:14:00;77700.91;;;-3.47;65.66
13954;BME280;7049;49.444;8.522;2023-03-19T08:19:01;77671.59;;;-3.47;65.28
13954;BME280;7049;49.444;8.522;2023-03-19T08:24:03;77642.31;;;-3.47;63.17
13954;BME280;7049;49.444;8.522;2023-03-19T08:29:06;77619.28;;;-3.47;62.84
13954;BME280;7049;49.444;8.522;2023-03-19T08:34:08;77592.09;;;-3.47;61.76
13954;BME280;7049;49.444;8.522;2023-03-19T08:39:11;77562.81;;;-3.47;58.54
13954;BME280;7049;49.444;8.522;2023-03-19T08:44:14;77531.41;;;-3.47;56.15
13954;BME280;7049;49.444;8.522;2023-03-19T08:49:15;77491.66;;;-3.47;54.79
13954;BME280;7049;49.444;8.522;2023-03-19T08:54:16;77466.56;;;-3.47;54.47
13954;BME280;7049;49.444;8.522;2023-03-19T08:59:19;77441.44;;;-3.47;51.75
13954;BME280;7049;49.444;8.522;2023-03-19T09:04:21;77391.22;;;-3.47;50.15
13954;BME280;7049;49.444;8.522;2023-03-19T09:09:23;77338.94;;;-3.47;47.99
13954;BME280;7049;49.444;8.522;2023-03-19T09:14:25;77311.72;;;-3.47;45.67
13954;BME280;7049;49.444;8.522;2023-03-19T09:19:27;77307.53;;;-3.47;45.62
13954;BME280;7049;49.444;8.522;2023-03-19T09:24:28;77303.38;;;-3.47;45.28
13954;BME280;7049;49.444;8.522;2023-03-19T09:29:31;77301.28;;;-3.47;45.56
13954;BME280;7049;49.444;8.522;2023-03-19T09:34:33;77295.00;;;-3.47;45.01
13954;BME280;7049;49.444;8.522;2023-03-19T09:39:34;77299.19;;;-3.47;44.03
13954;BME280;7049;49.444;8.522;2023-03-19T09:44:39;77290.81;;;-3.47;44.20
13954;BME280;7049;49.444;8.522;2023-03-19T09:49:45;77286.63;;;-3.47;44.19
13954;BME280;7049;49.444;8.522;2023-03-19T09:54:48;77282.44;;;-3.47;41.81
13954;BME280;7049;49.444;8.522;2023-03-19T09:59:54;77284.53;;;-3.47;42.46
13954;BME280;7049;49.444;8.522;2023-03-19T10:05:02;77265.69;;;-3.47;41.95
13954;BME280;7049;49.444;8.522;2023-03-19T10:10:20;77228.03;;;-3.47;41.10
13954;BME280;7049;49.444;8.522;2023-03-19T10:15:30;77156.91;;;-3.47;39.40
13954;BME280;7049;49.444;8.522;2023-03-19T10:20:42;77106.72;;;-3.47;38.23
13954;BME280;7049;49.444;8.522;2023-03-19T10:25:46;77094.16;;;-3.47;37.75
13954;BME280;7049;49.444;8.522;2023-03-19T10:30:56;77096.25;;;-3.47;37.88
13954;BME280;7049;49.444;8.522;2023-03-19T10:36:04;77089.97;;;-3.47;37.32
13954;BME280;7049;49.444;8.522;2023-03-19T10:41:23;77048.13;;;-3.47;36.91
13954;BME280;7049;49.444;8.522;2023-03-19T10:46:37;77004.19;;;-3.47;36.83
13954;BME280;7049;49.444;8.522;2023-03-19T10:51:39;76949.81;;;-3.47;36.10
13954;BME280;7049;49.444;8.522;2023-03-19T10:56:45;76903.78;;;-3.47;35.59
13954;BME280;7049;49.444;8.522;2023-03-19T11:01:48;76859.84;;;-3.47;35.46
13954;BME280;7049;49.444;8.522;2023-03-19T11:06:51;76832.66;;;-3.47;35.57
13954;BME280;7049;49.444;8.522;2023-03-19T11:11:56;76803.38;;;-3.47;34.83
13954;BME280;7049;49.444;8.522;2023-03-19T11:17:04;76761.53;;;-3.47;35.47
13954;BME280;7049;49.444;8.522;2023-03-19T11:22:14;76759.44;;;-3.47;33.75
13954;BME280;7049;49.444;8.522;2023-03-19T11:27:17;76805.47;;;-3.47;34.61
13954;BME280;7049;49.444;8.522;2023-03-19T11:32:45;76843.13;;;-3.47;34.39
13954;BME280;7049;49.444;8.522;2023-03-19T11:37:53;76897.50;;;-3.47;34.34
13954;BME280;7049;49.444;8.522;2023-03-19T11:43:17;76926.78;;;-3.47;35.08
13954;BME280;7049;49.444;8.522;2023-03-19T11:48:33;76951.91;;;-3.47;35.86
13954;BME280;7049;49.444;8.522;2023-03-19T11:53:55;76989.56;;;-3.47;36.02
13954;BME280;7049;49.444;8.522;2023-03-19T11:59:12;77012.56;;;-3.47;36.78
13954;BME280;7049;49.444;8.522;2023-03-19T12:04:35;77031.41;;;-3.47;36.85
13954;BME280;7049;49.444;8.522;2023-03-19T12:09:48;77018.84;;;-3.47;35.77
13954;BME280;7049;49.444;8.522;2023-03-19T12:15:02;77048.13;;;-3.47;35.13
13954;BME280;7049;49.444;8.522;2023-03-19T12:25:57;77046.03;;;-3.47;36.82
13954;BME280;7049;49.444;8.522;2023-03-19T12:31:33;77058.59;;;-3.47;37.06
13954;BME280;7049;49.444;8.522;2023-03-19T12:36:48;77077.41;;;-3.47;37.50
13954;BME280;7049;49.444;8.522;2023-03-19T12:41:51;77083.69;;;-3.47;37.57
13954;BME280;7049;49.444;8.522;2023-03-19T12:46:57;77094.16;;;-3.47;37.89
13954;BME280;7049;49.444;8.522;2023-03-19T12:52:09;77098.34;;;-3.47;38.36
13954;BME280;7049;49.444;8.522;2023-03-19T12:57:18;77106.72;;;-3.47;39.05
13954;BME280;7049;49.444;8.522;2023-03-19T13:02:27;77117.16;;;-3.47;39.18
13954;BME280;7049;49.444;8.522;2023-03-19T13:07:38;77119.25;;;-3.47;39.63
13954;BME280;7049;49.444;8.522;2023-03-19T13:12:42;77119.25;;;-3.47;40.20
13954;BME280;7049;49.444;8.522;2023-03-19T13:17:53;77129.72;;;-3.47;40.83
13954;BME280;7049;49.444;8.522;2023-03-19T13:23:03;77148.53;;;-3.47;43.20
13954;BME280;7049;49.444;8.522;2023-03-19T13:28:08;77177.84;;;-3.47;44.37
13954;BME280;7049;49.444;8.522;2023-03-19T13:33:14;77207.13;;;-3.47;47.04
13954;BME280;7049;49.444;8.522;2023-03-19T13:38:23;77221.78;;;-3.47;51.88
13954;BME280;7049;49.444;8.522;2023-03-19T13:43:41;77232.22;;;-3.47;54.16
13954;BME280;7049;49.444;8.522;2023-03-19T13:48:52;77234.31;;;-3.47;55.11
13954;BME280;7049;49.444;8.522;2023-03-19T13:54:04;77240.59;;;-3.47;56.47
13954;BME280;7049;49.444;8.522;2023-03-19T13:59:24;77242.69;;;-3.47;59.46
13954;BME280;7049;49.444;8.522;2023-03-19T14:04:28;77248.97;;;-3.47;62.61
13954;BME280;7049;49.444;8.522;2023-03-19T14:09:34;77246.88;;;-3.47;64.57
13954;BME280;7049;49.444;8.522;2023-03-19T14:14:41;77244.78;;;-3.47;64.34
13954;BME280;7049;49.444;8.522;2023-03-19T14:19:44;77240.59;;;-3.47;63.72
13954;BME280;7049;49.444;8.522;2023-03-19T14:24:55;77236.41;;;-3.47;63.92
13954;BME280;7049;49.444;8.522;2023-03-19T14:30:09;77221.78;;;-3.47;64.05
13954;BME280;7049;49.444;8.522;2023-03-19T14:35:17;77209.22;;;-3.47;64.31
13954;BME280;7049;49.444;8.522;2023-03-19T14:40:22;77202.94;;;-3.47;64.19
13954;BME280;7049;49.444;8.522;2023-03-19T14:45:49;77190.38;;;-3.47;64.16
13954;BME280;7049;49.444;8.522;2023-03-19T14:51:02;77182.03;;;-3.47;63.33
13954;BME280;7049;49.444;8.522;2023-03-19T14:56:13;77173.66;;;-3.47;62.47
13954;BME280;7049;49.444;8.522;2023-03-19T15:01:15;77171.56;;;-3.47;61.44
13954;BME280;7049;49.444;8.522;2023-03-19T15:06:16;77165.28;;;-3.47;61.13
13954;BME280;7049;49.444;8.522;2023-03-19T15:11:40;77165.28;;;-3.47;61.63
13954;BME280;7049;49.444;8.522;2023-03-19T15:16:52;77146.44;;;-3.47;61.11
13954;BME280;7049;49.444;8.522;2023-03-19T15:22:04;77123.44;;;-3.47;61.02
13954;BME280;7049;49.444;8.522;2023-03-19T15:27:19;77098.34;;;-3.47;59.91
13954;BME280;7049;49.444;8.522;2023-03-19T15:32:31;77081.59;;;-3.47;58.56
13954;BME280;7049;49.444;8.522;2023-03-19T15:37:36;77035.56;;;-3.47;57.05
13954;BME280;7049;49.444;8.522;2023-03-19T15:42:42;77025.13;;;-3.47;57.03
13954;BME280;7049;49.444;8.522;2023-03-19T15:47:47;77048.13;;;-3.47;57.38
13954;BME280;7049;49.444;8.522;2023-03-19T15:52:56;77064.88;;;-3.47;58.12
13954;BME280;7049;49.444;8.522;2023-03-19T15:58:04;77048.13;;;-3.47;57.01
13954;BME280;7049;49.444;8.522;2023-03-19T16:03:07;77048.13;;;-3.47;56.64
13954;BME280;7049;49.444;8.522;2023-03-19T16:08:17;77064.88;;;-3.47;56.61
13954;BME280;7049;49.444;8.522;2023-03-19T16:13:26;77085.78;;;-3.47;57.11
13954;BME280;7049;49.444;8.522;2023-03-19T16:18:30;77110.88;;;-3.47;57.44
13954;BME280;7049;49.444;8.522;2023-03-19T16:23:33;77146.44;;;-3.47;57.95
13954;BME280;7049;49.444;8.522;2023-03-19T16:28:40;77167.38;;;-3.47;58.94
13954;BME280;7049;49.444;8.522;2023-03-19T16:33:41;77198.75;;;-3.47;59.66
13954;BME280;7049;49.444;8.522;2023-03-19T16:38:46;77217.59;;;-3.47;60.84
13954;BME280;7049;49.444;8.522;2023-03-19T16:43:54;77248.97;;;-3.47;61.92
13954;BME280;7049;49.444;8.522;2023-03-19T16:48:55;77261.53;;;-3.47;62.36
13954;BME280;7049;49.444;8.522;2023-03-19T16:53:57;77278.25;;;-3.47;63.04
13954;BME280;7049;49.444;8.522;2023-03-19T16:59:02;77297.09;;;-3.47;63.56
13954;BME280;7049;49.444;8.522;2023-03-19T17:04:07;77311.72;;;-3.47;64.01
13954;BME280;7049;49.444;8.522;2023-03-19T17:09:10;77322.19;;;-3.47;64.66
13954;BME280;7049;49.444;8.522;2023-03-19T17:14:15;77338.94;;;-3.47;65.09
13954;BME280;7049;49.444;8.522;2023-03-19T17:19:20;77349.38;;;-3.47;64.39
13954;BME280;7049;49.444;8.522;2023-03-19T17:24:23;77382.88;;;-3.47;63.48
13954;BME280;7049;49.444;8.522;2023-03-19T17:29:27;77416.34;;;-3.47;65.33
13954;BME280;7049;49.444;8.522;2023-03-19T17:34:29;77458.19;;;-3.47;67.17
13954;BME280;7049;49.444;8.522;2023-03-19T17:39:32;77481.19;;;-3.47;68.18
13954;BME280;7049;49.444;8.522;2023-03-19T17:44:35;77506.31;;;-3.47;68.99
13954;BME280;7049;49.444;8.522;2023-03-19T17:49:36;77516.78;;;-3.47;70.06
13954;BME280;7049;49.444;8.522;2023-03-19T17:54:39;77529.31;;;-3.47;70.60
13954;BME280;7049;49.444;8.522;2023-03-19T17:59:42;77533.50;;;-3.47;71.78
13954;BME280;7049;49.444;8.522;2023-03-19T18:04:43;77554.44;;;-3.47;73.15
13954;BME280;7049;49.444;8.522;2023-03-19T18:09:45;77564.91;;;-3.47;74.33
13954;BME280;7049;49.444;8.522;2023-03-19T18:14:48;77583.72;;;-3.47;74.46
13954;BME280;7049;49.444;8.522;2023-03-19T18:19:49;77600.47;;;-3.47;74.40
13954;BME280;7049;49.444;8.522;2023-03-19T18:24:51;77615.09;;;-3.47;74.50
13954;BME280;7049;49.444;8.522;2023-03-19T18:29:54;77631.84;;;-3.47;75.41
13954;BME280;7049;49.444;8.522;2023-03-19T18:34:56;77642.31;;;-3.47;75.76
13954;BME280;7049;49.444;8.522;2023-03-19T18:39:57;77652.78;;;-3.47;76.17
13954;BME280;7049;49.444;8.522;2023-03-19T18:45:00;77663.22;;;-3.47;76.42
13954;BME280;7049;49.444;8.522;2023-03-19T18:50:02;77679.97;;;-3.47;76.41
13954;BME280;7049;49.444;8.522;2023-03-19T18:55:04;77696.72;;;-3.47;76.67
13954;BME280;7049;49.444;8.522;2023-03-19T19:00:14;77713.44;;;-3.47;76.69
13954;BME280;7049;49.444;8.522;2023-03-19T19:05:18;77728.09;;;-3.47;77.01
13954;BME280;7049;49.444;8.522;2023-03-19T19:10:21;77742.75;;;-3.47;77.42
13954;BME280;7049;49.444;8.522;2023-03-19T19:15:27;77759.47;;;-3.47;77.83
13954;BME280;7049;49.444;8.522;2023-03-19T19:20:30;77774.13;;;-3.47;78.04
13954;BME280;7049;49.444;8.522;2023-03-19T19:25:31;77788.78;;;-3.47;78.32
13954;BME280;7049;49.444;8.522;2023-03-19T19:30:34;77813.88;;;-3.47;78.61
13954;BME280;7049;49.444;8.522;2023-03-19T19:35:36;77828.53;;;-3.47;78.96
13954;BME280;7049;49.444;8.522;2023-03-19T19:40:38;77847.38;;;-3.47;79.12
13954;BME280;7049;49.444;8.522;2023-03-19T19:45:41;77868.28;;;-3.47;79.39
13954;BME280;7049;49.444;8.522;2023-03-19T19:50:44;77891.31;;;-3.47;79.68
13954;BME280;7049;49.444;8.522;2023-03-19T19:55:46;77905.97;;;-3.47;80.39
13954;BME280;7049;49.444;8.522;2023-03-19T20:00:49;77924.78;;;-3.47;80.96
13954;BME280;7049;49.444;8.522;2023-03-19T20:05:52;77928.97;;;-3.47;81.46
13954;BME280;7049;49.444;8.522;2023-03-19T20:10:55;77952.00;;;-3.47;81.78
13954;BME280;7049;49.444;8.522;2023-03-19T20:15:58;77977.09;;;-3.47;82.00
13954;BME280;7049;49.444;8.522;2023-03-19T20:21:01;77989.66;;;-3.47;82.03
13954;BME280;7049;49.444;8.522;2023-03-19T20:26:03;78006.41;;;-3.47;82.27
13954;BME280;7049;49.444;8.522;2023-03-19T20:31:06;78021.03;;;-3.47;82.39
13954;BME280;7049;49.444;8.522;2023-03-19T20:36:08;78031.50;;;-3.47;82.53
13954;BME280;7049;49.444;8.522;2023-03-19T20:41:16;78060.81;;;-3.47;82.87
13954;BME280;7049;49.444;8.522;2023-03-19T20:46:21;78073.38;;;-3.47;83.43
13954;BME280;7049;49.444;8.522;2023-03-19T20:51:24;78090.09;;;-3.47;83.54
13954;BME280;7049;49.444;8.522;2023-03-19T20:56:30;78102.66;;;-3.47;83.73
13954;BME280;7049;49.444;8.522;2023-03-19T21:01:34;78111.03;;;-3.47;83.87
13954;BME280;7049;49.444;8.522;2023-03-19T21:06:35;78129.88;;;-3.47;84.16
13954;BME280;7049;49.444;8.522;2023-03-19T21:11:39;78146.59;;;-3.47;84.33
13954;BME280;7049;49.444;8.522;2023-03-19T21:16:43;78165.44;;;-3.47;84.29
13954;BME280;7049;49.444;8.522;2023-03-19T21:21:45;78182.19;;;-3.47;84.93
13954;BME280;7049;49.444;8.522;2023-03-19T21:26:47;78196.81;;;-3.47;85.41
13954;BME280;7049;49.444;8.522;2023-03-19T21:31:54;78205.19;;;-3.47;85.77
13954;BME280;7049;49.444;8.522;2023-03-19T21:36:57;78219.84;;;-3.47;86.01
13954;BME280;7049;49.444;8.522;2023-03-19T21:42:04;78228.22;;;-3.47;86.33
13954;BME280;7049;49.444;8.522;2023-03-19T21:47:11;78240.78;;;-3.47;86.48
13954;BME280;7049;49.444;8.522;2023-03-19T21:52:14;78253.34;;;-3.47;86.71
13954;BME280;7049;49.444;8.522;2023-03-19T21:57:17;78265.88;;;-3.47;86.70
13954;BME280;7049;49.444;8.522;2023-03-19T22:02:38;78278.44;;;-3.47;86.95
13954;BME280;7049;49.444;8.522;2023-03-19T22:07:40;78286.81;;;-3.47;87.45
13954;BME280;7049;49.444;8.522;2023-03-19T22:12:42;78286.81;;;-3.47;88.32
13954;BME280;7049;49.444;8.522;2023-03-19T22:17:46;78286.81;;;-3.47;89.38
13954;BME280;7049;49.444;8.522;2023-03-19T22:22:49;78288.91;;;-3.47;90.34
13954;BME280;7049;49.444;8.522;2023-03-19T22:27:51;78291.00;;;-3.47;91.83
13954;BME280;7049;49.444;8.522;2023-03-19T22:32:54;78286.81;;;-3.47;91.95
13954;BME280;7049;49.444;8.522;2023-03-19T22:37:56;78278.44;;;-3.47;92.32
13954;BME280;7049;49.444;8.522;2023-03-19T22:42:58;78282.63;;;-3.47;93.21
13954;BME280;7049;49.444;8.522;2023-03-19T22:48:01;78274.25;;;-3.47;95.85
13954;BME280;7049;49.444;8.522;2023-03-19T22:53:17;78270.06;;;-3.47;96.24
13954;BME280;7049;49.444;8.522;2023-03-19T22:58:19;78263.78;;;-3.47;96.40
13954;BME280;7049;49.444;8.522;2023-03-19T23:03:24;78251.25;;;-3.47;96.57
13954;BME280;7049;49.444;8.522;2023-03-19T23:08:26;78255.44;;;-3.47;96.55
13954;BME280;7049;49.444;8.522;2023-03-19T23:13:28;78244.97;;;-3.47;96.90
13954;BME280;7049;49.444;8.522;2023-03-19T23:18:32;78244.97;;;-3.47;97.59
13954;BME280;7049;49.444;8.522;2023-03-19T23:23:34;78236.59;;;-3.47;97.61
13954;BME280;7049;49.444;8.522;2023-03-19T23:28:36;78236.59;;;-3.47;98.22
13954;BME280;7049;49.444;8.522;2023-03-19T23:33:39;78247.06;;;-3.47;98.52
13954;BME280;7049;49.444;8.522;2023-03-19T23:38:40;78236.59;;;-3.47;98.80
13954;BME280;7049;49.444;8.522;2023-03-19T23:43:42;78247.06;;;-3.47;98.49
13954;BME280;7049;49.444;8.522;2023-03-19T23:48:45;78251.25;;;-3.47;98.29
13954;BME280;7049;49.444;8.522;2023-03-19T23:53:47;78244.97;;;-3.47;98.38
13954;BME280;7049;49.444;8.522;2023-03-19T23:58:49;78251.25;;;-3.47;98.53
